sensor_id;sensor_type;location;lat;lon;timestamp;temperature;humidity
46890;DHT22;32625;51.080;16.970;2022-07-22T00:00:31;23.30;79.20
46890;DHT22;32625;51.080;16.970;2022-07-22T00:02:58;23.20;79.70
46890;DHT22;32625;51.080;16.970;2022-07-22T00:05:26;23.20;80.20
46890;DHT22;32625;51.080;16.970;2022-07-22T00:07:53;23.10;80.60
46890;DHT22;32625;51.080;16.970;2022-07-22T00:10:20;23.10;80.90
46890;DHT22;32625;51.080;16.970;2022-07-22T00:12:48;23.10;80.80
46890;DHT22;32625;51.080;16.970;2022-07-22T00:15:15;23.10;81.40
46890;DHT22;32625;51.080;16.970;2022-07-22T00:17:42;23.10;80.80
46890;DHT22;32625;51.080;16.970;2022-07-22T00:20:10;23.00;81.30
46890;DHT22;32625;51.080;16.970;2022-07-22T00:22:37;23.00;82.70
46890;DHT22;32625;51.080;16.970;2022-07-22T00:25:05;23.00;82.00
46890;DHT22;32625;51.080;16.970;2022-07-22T00:27:33;23.00;81.40
46890;DHT22;32625;51.080;16.970;2022-07-22T00:30:00;23.00;81.90
46890;DHT22;32625;51.080;16.970;2022-07-22T00:32:27;23.00;82.50
46890;DHT22;32625;51.080;16.970;2022-07-22T00:34:55;22.90;82.90
46890;DHT22;32625;51.080;16.970;2022-07-22T00:37:22;22.90;83.10
46890;DHT22;32625;51.080;16.970;2022-07-22T00:39:50;22.80;83.10
46890;DHT22;32625;51.080;16.970;2022-07-22T00:42:18;22.80;83.10
46890;DHT22;32625;51.080;16.970;2022-07-22T00:44:49;22.80;83.50
46890;DHT22;32625;51.080;16.970;2022-07-22T00:47:17;22.70;83.90
46890;DHT22;32625;51.080;16.970;2022-07-22T00:49:44;22.60;85.80
46890;DHT22;32625;51.080;16.970;2022-07-22T00:52:12;22.60;84.90
46890;DHT22;32625;51.080;16.970;2022-07-22T00:54:40;22.60;85.20
46890;DHT22;32625;51.080;16.970;2022-07-22T00:57:08;22.50;85.10
46890;DHT22;32625;51.080;16.970;2022-07-22T00:59:35;22.40;86.40
46890;DHT22;32625;51.080;16.970;2022-07-22T01:02:03;22.40;86.90
46890;DHT22;32625;51.080;16.970;2022-07-22T01:04:30;22.40;87.30
46890;DHT22;32625;51.080;16.970;2022-07-22T01:06:57;22.40;87.90
46890;DHT22;32625;51.080;16.970;2022-07-22T01:09:25;22.30;87.30
46890;DHT22;32625;51.080;16.970;2022-07-22T01:11:52;22.30;87.80
46890;DHT22;32625;51.080;16.970;2022-07-22T01:14:19;22.20;88.60
46890;DHT22;32625;51.080;16.970;2022-07-22T01:16:47;22.20;89.00
46890;DHT22;32625;51.080;16.970;2022-07-22T01:19:16;22.10;88.60
46890;DHT22;32625;51.080;16.970;2022-07-22T01:21:43;22.10;89.40
46890;DHT22;32625;51.080;16.970;2022-07-22T01:24:11;22.10;89.90
46890;DHT22;32625;51.080;16.970;2022-07-22T01:26:38;22.00;90.00
46890;DHT22;32625;51.080;16.970;2022-07-22T01:29:07;22.00;90.30
46890;DHT22;32625;51.080;16.970;2022-07-22T01:31:35;21.90;90.50
46890;DHT22;32625;51.080;16.970;2022-07-22T01:34:02;21.90;90.50
46890;DHT22;32625;51.080;16.970;2022-07-22T01:36:34;21.90;90.70
46890;DHT22;32625;51.080;16.970;2022-07-22T01:39:03;21.80;90.30
46890;DHT22;32625;51.080;16.970;2022-07-22T01:41:31;21.80;90.60
46890;DHT22;32625;51.080;16.970;2022-07-22T01:43:58;21.80;91.20
46890;DHT22;32625;51.080;16.970;2022-07-22T01:46:26;21.80;90.90
46890;DHT22;32625;51.080;16.970;2022-07-22T01:48:53;21.80;91.30
46890;DHT22;32625;51.080;16.970;2022-07-22T01:51:22;21.70;91.60
46890;DHT22;32625;51.080;16.970;2022-07-22T01:53:49;21.70;91.70
46890;DHT22;32625;51.080;16.970;2022-07-22T01:56:17;21.70;91.60
46890;DHT22;32625;51.080;16.970;2022-07-22T01:58:49;21.60;92.10
46890;DHT22;32625;51.080;16.970;2022-07-22T02:01:21;21.60;92.20
46890;DHT22;32625;51.080;16.970;2022-07-22T02:03:49;21.60;92.40
46890;DHT22;32625;51.080;16.970;2022-07-22T02:06:17;21.50;92.50
46890;DHT22;32625;51.080;16.970;2022-07-22T02:08:45;21.50;92.90
46890;DHT22;32625;51.080;16.970;2022-07-22T02:11:13;21.50;92.60
46890;DHT22;32625;51.080;16.970;2022-07-22T02:13:55;21.50;92.30
46890;DHT22;32625;51.080;16.970;2022-07-22T02:16:23;21.50;92.50
46890;DHT22;32625;51.080;16.970;2022-07-22T02:18:52;21.50;92.60
46890;DHT22;32625;51.080;16.970;2022-07-22T02:21:20;21.50;93.10
46890;DHT22;32625;51.080;16.970;2022-07-22T02:23:50;21.50;92.80
46890;DHT22;32625;51.080;16.970;2022-07-22T02:26:17;21.50;92.60
46890;DHT22;32625;51.080;16.970;2022-07-22T02:28:45;21.50;92.70
46890;DHT22;32625;51.080;16.970;2022-07-22T02:31:13;21.50;92.80
46890;DHT22;32625;51.080;16.970;2022-07-22T02:33:40;21.50;93.30
46890;DHT22;32625;51.080;16.970;2022-07-22T02:36:09;21.60;92.60
46890;DHT22;32625;51.080;16.970;2022-07-22T02:38:36;21.60;92.50
46890;DHT22;32625;51.080;16.970;2022-07-22T02:41:04;21.60;92.50
46890;DHT22;32625;51.080;16.970;2022-07-22T02:43:33;21.50;92.80
46890;DHT22;32625;51.080;16.970;2022-07-22T02:46:01;21.50;92.70
46890;DHT22;32625;51.080;16.970;2022-07-22T02:48:29;21.50;93.00
46890;DHT22;32625;51.080;16.970;2022-07-22T02:50:56;21.50;93.00
46890;DHT22;32625;51.080;16.970;2022-07-22T02:53:27;21.50;93.30
46890;DHT22;32625;51.080;16.970;2022-07-22T02:55:56;21.50;93.40
46890;DHT22;32625;51.080;16.970;2022-07-22T02:58:23;21.60;93.30
46890;DHT22;32625;51.080;16.970;2022-07-22T03:00:51;21.60;93.60
46890;DHT22;32625;51.080;16.970;2022-07-22T03:03:18;21.70;93.50
46890;DHT22;32625;51.080;16.970;2022-07-22T03:05:46;21.70;97.10
46890;DHT22;32625;51.080;16.970;2022-07-22T03:08:20;21.50;99.90
46890;DHT22;32625;51.080;16.970;2022-07-22T03:10:48;21.20;99.90
46890;DHT22;32625;51.080;16.970;2022-07-22T03:13:16;21.10;99.90
46890;DHT22;32625;51.080;16.970;2022-07-22T03:15:43;20.90;99.90
46890;DHT22;32625;51.080;16.970;2022-07-22T03:18:12;20.90;99.90
46890;DHT22;32625;51.080;16.970;2022-07-22T03:20:40;21.00;99.90
46890;DHT22;32625;51.080;16.970;2022-07-22T03:23:08;21.00;99.90
46890;DHT22;32625;51.080;16.970;2022-07-22T03:25:37;20.90;99.90
46890;DHT22;32625;51.080;16.970;2022-07-22T03:28:06;20.90;99.90
46890;DHT22;32625;51.080;16.970;2022-07-22T03:30:34;20.90;99.90
46890;DHT22;32625;51.080;16.970;2022-07-22T03:33:02;20.90;99.90
46890;DHT22;32625;51.080;16.970;2022-07-22T03:35:34;20.90;99.90
46890;DHT22;32625;51.080;16.970;2022-07-22T03:38:01;20.90;99.90
46890;DHT22;32625;51.080;16.970;2022-07-22T03:40:30;20.80;99.90
46890;DHT22;32625;51.080;16.970;2022-07-22T03:42:58;20.80;99.90
46890;DHT22;32625;51.080;16.970;2022-07-22T03:45:25;20.80;99.90
46890;DHT22;32625;51.080;16.970;2022-07-22T03:47:53;20.80;99.90
46890;DHT22;32625;51.080;16.970;2022-07-22T03:50:24;20.70;99.90
46890;DHT22;32625;51.080;16.970;2022-07-22T03:52:54;20.80;99.90
46890;DHT22;32625;51.080;16.970;2022-07-22T03:55:22;20.80;99.90
46890;DHT22;32625;51.080;16.970;2022-07-22T03:57:53;20.80;99.90
46890;DHT22;32625;51.080;16.970;2022-07-22T04:00:24;20.80;99.90
46890;DHT22;32625;51.080;16.970;2022-07-22T04:02:52;20.80;99.90
46890;DHT22;32625;51.080;16.970;2022-07-22T04:05:38;20.80;99.90
46890;DHT22;32625;51.080;16.970;2022-07-22T04:08:06;20.90;99.90
46890;DHT22;32625;51.080;16.970;2022-07-22T04:10:35;20.80;99.90
46890;DHT22;32625;51.080;16.970;2022-07-22T04:13:02;20.80;99.90
46890;DHT22;32625;51.080;16.970;2022-07-22T04:15:41;20.80;99.90
46890;DHT22;32625;51.080;16.970;2022-07-22T04:18:09;20.80;99.90
46890;DHT22;32625;51.080;16.970;2022-07-22T04:20:37;20.70;99.90
46890;DHT22;32625;51.080;16.970;2022-07-22T04:23:33;20.70;99.90
46890;DHT22;32625;51.080;16.970;2022-07-22T04:26:11;20.70;99.90
46890;DHT22;32625;51.080;16.970;2022-07-22T04:28:39;20.70;99.90
46890;DHT22;32625;51.080;16.970;2022-07-22T04:31:06;20.70;99.90
46890;DHT22;32625;51.080;16.970;2022-07-22T04:33:37;20.70;99.90
46890;DHT22;32625;51.080;16.970;2022-07-22T04:36:04;20.70;99.90
46890;DHT22;32625;51.080;16.970;2022-07-22T04:38:32;20.70;99.90
46890;DHT22;32625;51.080;16.970;2022-07-22T04:41:03;20.70;99.90
46890;DHT22;32625;51.080;16.970;2022-07-22T04:43:30;20.70;99.90
46890;DHT22;32625;51.080;16.970;2022-07-22T04:45:57;20.70;99.90
46890;DHT22;32625;51.080;16.970;2022-07-22T04:48:29;20.70;99.90
46890;DHT22;32625;51.080;16.970;2022-07-22T04:51:02;20.70;99.90
46890;DHT22;32625;51.080;16.970;2022-07-22T04:53:31;20.70;99.90
46890;DHT22;32625;51.080;16.970;2022-07-22T04:56:16;20.70;99.90
46890;DHT22;32625;51.080;16.970;2022-07-22T04:58:45;20.70;99.90
46890;DHT22;32625;51.080;16.970;2022-07-22T05:01:12;20.70;99.90
46890;DHT22;32625;51.080;16.970;2022-07-22T05:03:41;20.80;99.90
46890;DHT22;32625;51.080;16.970;2022-07-22T05:06:11;20.90;99.90
46890;DHT22;32625;51.080;16.970;2022-07-22T05:08:40;21.00;99.90
46890;DHT22;32625;51.080;16.970;2022-07-22T05:11:08;21.00;99.90
46890;DHT22;32625;51.080;16.970;2022-07-22T05:13:35;21.10;99.90
46890;DHT22;32625;51.080;16.970;2022-07-22T05:16:04;21.10;99.90
46890;DHT22;32625;51.080;16.970;2022-07-22T05:18:33;21.10;99.90
46890;DHT22;32625;51.080;16.970;2022-07-22T05:21:02;21.10;99.90
46890;DHT22;32625;51.080;16.970;2022-07-22T05:23:30;21.20;99.90
46890;DHT22;32625;51.080;16.970;2022-07-22T05:25:58;21.20;99.90
46890;DHT22;32625;51.080;16.970;2022-07-22T05:28:25;21.20;99.90
46890;DHT22;32625;51.080;16.970;2022-07-22T05:30:53;21.30;99.90
46890;DHT22;32625;51.080;16.970;2022-07-22T05:33:24;21.40;99.90
46890;DHT22;32625;51.080;16.970;2022-07-22T05:35:57;21.40;99.90
46890;DHT22;32625;51.080;16.970;2022-07-22T05:38:34;21.40;99.90
46890;DHT22;32625;51.080;16.970;2022-07-22T05:41:02;21.40;99.90
46890;DHT22;32625;51.080;16.970;2022-07-22T05:43:30;21.50;99.90
46890;DHT22;32625;51.080;16.970;2022-07-22T05:45:59;21.50;99.90
46890;DHT22;32625;51.080;16.970;2022-07-22T05:48:26;21.50;99.90
46890;DHT22;32625;51.080;16.970;2022-07-22T05:50:53;21.60;99.90
46890;DHT22;32625;51.080;16.970;2022-07-22T05:53:21;21.60;99.90
46890;DHT22;32625;51.080;16.970;2022-07-22T05:55:48;21.60;99.90
46890;DHT22;32625;51.080;16.970;2022-07-22T05:58:16;21.70;99.90
46890;DHT22;32625;51.080;16.970;2022-07-22T06:00:43;21.70;99.90
46890;DHT22;32625;51.080;16.970;2022-07-22T06:03:11;21.80;99.90
46890;DHT22;32625;51.080;16.970;2022-07-22T06:05:44;21.90;99.90
46890;DHT22;32625;51.080;16.970;2022-07-22T06:08:11;22.00;99.90
46890;DHT22;32625;51.080;16.970;2022-07-22T06:10:46;22.20;99.90
46890;DHT22;32625;51.080;16.970;2022-07-22T06:13:14;22.30;99.90
46890;DHT22;32625;51.080;16.970;2022-07-22T06:15:42;22.30;99.90
46890;DHT22;32625;51.080;16.970;2022-07-22T06:18:10;22.40;99.90
46890;DHT22;32625;51.080;16.970;2022-07-22T06:20:38;22.60;99.90
46890;DHT22;32625;51.080;16.970;2022-07-22T06:23:05;22.50;99.90
46890;DHT22;32625;51.080;16.970;2022-07-22T06:25:34;22.70;99.90
46890;DHT22;32625;51.080;16.970;2022-07-22T06:28:39;22.70;99.90
46890;DHT22;32625;51.080;16.970;2022-07-22T06:31:08;22.70;99.90
46890;DHT22;32625;51.080;16.970;2022-07-22T06:33:36;22.70;99.90
46890;DHT22;32625;51.080;16.970;2022-07-22T06:36:05;22.70;99.90
46890;DHT22;32625;51.080;16.970;2022-07-22T06:38:32;22.70;99.90
46890;DHT22;32625;51.080;16.970;2022-07-22T06:41:16;22.70;99.90
46890;DHT22;32625;51.080;16.970;2022-07-22T06:44:02;22.70;99.90
46890;DHT22;32625;51.080;16.970;2022-07-22T06:46:45;22.70;99.90
46890;DHT22;32625;51.080;16.970;2022-07-22T06:49:16;22.70;99.90
46890;DHT22;32625;51.080;16.970;2022-07-22T06:51:45;22.70;99.90
46890;DHT22;32625;51.080;16.970;2022-07-22T06:54:12;22.70;99.90
46890;DHT22;32625;51.080;16.970;2022-07-22T06:56:39;22.70;99.90
46890;DHT22;32625;51.080;16.970;2022-07-22T06:59:11;22.70;99.90
46890;DHT22;32625;51.080;16.970;2022-07-22T07:01:39;22.70;99.90
46890;DHT22;32625;51.080;16.970;2022-07-22T07:04:06;22.70;99.90
46890;DHT22;32625;51.080;16.970;2022-07-22T07:06:34;22.80;99.90
46890;DHT22;32625;51.080;16.970;2022-07-22T07:09:24;22.80;99.90
46890;DHT22;32625;51.080;16.970;2022-07-22T07:12:02;22.90;99.90
46890;DHT22;32625;51.080;16.970;2022-07-22T07:14:48;23.00;99.90
46890;DHT22;32625;51.080;16.970;2022-07-22T07:17:35;23.10;99.90
46890;DHT22;32625;51.080;16.970;2022-07-22T07:20:06;23.20;99.90
46890;DHT22;32625;51.080;16.970;2022-07-22T07:22:34;23.20;99.90
46890;DHT22;32625;51.080;16.970;2022-07-22T07:25:04;23.20;99.90
46890;DHT22;32625;51.080;16.970;2022-07-22T07:27:51;23.10;99.90
46890;DHT22;32625;51.080;16.970;2022-07-22T07:30:27;23.10;99.90
46890;DHT22;32625;51.080;16.970;2022-07-22T07:32:54;23.10;99.90
46890;DHT22;32625;51.080;16.970;2022-07-22T07:35:21;23.20;99.90
46890;DHT22;32625;51.080;16.970;2022-07-22T07:37:55;23.30;99.90
46890;DHT22;32625;51.080;16.970;2022-07-22T07:40:22;23.40;99.90
46890;DHT22;32625;51.080;16.970;2022-07-22T07:42:50;23.50;99.90
46890;DHT22;32625;51.080;16.970;2022-07-22T07:45:29;23.50;99.90
46890;DHT22;32625;51.080;16.970;2022-07-22T07:47:57;23.50;99.90
46890;DHT22;32625;51.080;16.970;2022-07-22T07:50:25;23.60;99.90
46890;DHT22;32625;51.080;16.970;2022-07-22T07:52:54;23.80;99.90
46890;DHT22;32625;51.080;16.970;2022-07-22T07:55:24;24.10;99.90
46890;DHT22;32625;51.080;16.970;2022-07-22T07:57:52;24.00;99.90
46890;DHT22;32625;51.080;16.970;2022-07-22T08:00:25;23.90;99.90
46890;DHT22;32625;51.080;16.970;2022-07-22T08:02:57;24.00;99.90
46890;DHT22;32625;51.080;16.970;2022-07-22T08:05:28;24.10;99.90
46890;DHT22;32625;51.080;16.970;2022-07-22T08:07:57;24.10;99.90
46890;DHT22;32625;51.080;16.970;2022-07-22T08:10:26;24.20;99.90
46890;DHT22;32625;51.080;16.970;2022-07-22T08:13:32;24.50;99.90
46890;DHT22;32625;51.080;16.970;2022-07-22T08:16:14;24.70;99.90
46890;DHT22;32625;51.080;16.970;2022-07-22T08:18:42;24.90;99.90
46890;DHT22;32625;51.080;16.970;2022-07-22T08:21:11;25.00;99.90
46890;DHT22;32625;51.080;16.970;2022-07-22T08:23:59;24.90;99.90
46890;DHT22;32625;51.080;16.970;2022-07-22T08:26:27;24.70;99.90
46890;DHT22;32625;51.080;16.970;2022-07-22T08:29:00;24.80;99.90
46890;DHT22;32625;51.080;16.970;2022-07-22T08:31:29;24.80;99.90
46890;DHT22;32625;51.080;16.970;2022-07-22T08:34:03;24.90;99.90
46890;DHT22;32625;51.080;16.970;2022-07-22T08:36:31;25.00;99.90
46890;DHT22;32625;51.080;16.970;2022-07-22T08:38:59;25.00;99.50
46890;DHT22;32625;51.080;16.970;2022-07-22T08:41:36;25.10;99.90
46890;DHT22;32625;51.080;16.970;2022-07-22T08:44:05;25.20;98.50
46890;DHT22;32625;51.080;16.970;2022-07-22T08:46:33;25.00;99.30
46890;DHT22;32625;51.080;16.970;2022-07-22T08:49:19;25.00;99.40
46890;DHT22;32625;51.080;16.970;2022-07-22T08:52:10;25.20;99.20
46890;DHT22;32625;51.080;16.970;2022-07-22T08:54:41;25.30;98.30
46890;DHT22;32625;51.080;16.970;2022-07-22T08:57:11;25.30;98.20
46890;DHT22;32625;51.080;16.970;2022-07-22T08:59:52;25.30;97.00
46890;DHT22;32625;51.080;16.970;2022-07-22T09:02:21;25.40;97.00
46890;DHT22;32625;51.080;16.970;2022-07-22T09:05:04;25.50;96.20
46890;DHT22;32625;51.080;16.970;2022-07-22T09:07:58;25.70;94.90
46890;DHT22;32625;51.080;16.970;2022-07-22T09:10:50;25.70;95.00
46890;DHT22;32625;51.080;16.970;2022-07-22T09:13:51;25.70;94.50
46890;DHT22;32625;51.080;16.970;2022-07-22T09:16:47;25.80;93.30
46890;DHT22;32625;51.080;16.970;2022-07-22T09:19:34;25.70;92.50
46890;DHT22;32625;51.080;16.970;2022-07-22T09:22:38;25.80;91.70
46890;DHT22;32625;51.080;16.970;2022-07-22T09:25:33;25.70;92.30
46890;DHT22;32625;51.080;16.970;2022-07-22T09:28:33;25.80;91.60
46890;DHT22;32625;51.080;16.970;2022-07-22T09:31:38;25.80;91.00
46890;DHT22;32625;51.080;16.970;2022-07-22T09:34:32;25.80;90.20
46890;DHT22;32625;51.080;16.970;2022-07-22T09:37:17;25.70;91.20
46890;DHT22;32625;51.080;16.970;2022-07-22T09:39:46;25.60;91.70
46890;DHT22;32625;51.080;16.970;2022-07-22T09:42:15;25.60;90.60
46890;DHT22;32625;51.080;16.970;2022-07-22T09:44:46;25.90;88.20
46890;DHT22;32625;51.080;16.970;2022-07-22T09:47:29;26.20;88.00
46890;DHT22;32625;51.080;16.970;2022-07-22T09:50:26;26.40;85.40
46890;DHT22;32625;51.080;16.970;2022-07-22T09:53:20;26.20;87.00
46890;DHT22;32625;51.080;16.970;2022-07-22T09:56:04;26.70;82.90
46890;DHT22;32625;51.080;16.970;2022-07-22T09:58:33;27.10;80.30
46890;DHT22;32625;51.080;16.970;2022-07-22T10:01:06;26.90;80.70
46890;DHT22;32625;51.080;16.970;2022-07-22T10:03:36;27.00;78.40
46890;DHT22;32625;51.080;16.970;2022-07-22T10:06:06;26.80;79.80
46890;DHT22;32625;51.080;16.970;2022-07-22T10:08:36;26.80;80.10
46890;DHT22;32625;51.080;16.970;2022-07-22T10:11:06;27.10;78.20
46890;DHT22;32625;51.080;16.970;2022-07-22T10:13:35;27.20;76.00
46890;DHT22;32625;51.080;16.970;2022-07-22T10:16:07;27.30;76.30
46890;DHT22;32625;51.080;16.970;2022-07-22T10:18:37;27.40;74.70
46890;DHT22;32625;51.080;16.970;2022-07-22T10:21:12;27.00;75.90
46890;DHT22;32625;51.080;16.970;2022-07-22T10:24:14;26.70;79.20
46890;DHT22;32625;51.080;16.970;2022-07-22T10:26:57;26.90;78.40
46890;DHT22;32625;51.080;16.970;2022-07-22T10:29:32;27.20;74.40
46890;DHT22;32625;51.080;16.970;2022-07-22T10:40:21;26.60;73.00
46890;DHT22;32625;51.080;16.970;2022-07-22T10:43:04;26.40;75.50
46890;DHT22;32625;51.080;16.970;2022-07-22T10:45:49;26.30;73.90
46890;DHT22;32625;51.080;16.970;2022-07-22T10:51:19;26.50;73.10
46890;DHT22;32625;51.080;16.970;2022-07-22T10:53:59;26.90;70.10
46890;DHT22;32625;51.080;16.970;2022-07-22T10:56:30;27.20;69.60
46890;DHT22;32625;51.080;16.970;2022-07-22T10:59:12;27.70;67.50
46890;DHT22;32625;51.080;16.970;2022-07-22T11:01:46;27.70;67.10
46890;DHT22;32625;51.080;16.970;2022-07-22T11:04:19;27.60;68.60
46890;DHT22;32625;51.080;16.970;2022-07-22T11:06:50;28.00;66.50
46890;DHT22;32625;51.080;16.970;2022-07-22T11:09:19;28.20;63.70
46890;DHT22;32625;51.080;16.970;2022-07-22T11:11:52;28.10;62.90
46890;DHT22;32625;51.080;16.970;2022-07-22T11:14:27;27.90;62.20
46890;DHT22;32625;51.080;16.970;2022-07-22T11:17:09;28.10;63.90
46890;DHT22;32625;51.080;16.970;2022-07-22T11:19:38;28.40;63.00
46890;DHT22;32625;51.080;16.970;2022-07-22T11:22:07;28.70;60.60
46890;DHT22;32625;51.080;16.970;2022-07-22T11:24:36;28.60;60.00
46890;DHT22;32625;51.080;16.970;2022-07-22T11:27:04;28.90;59.40
46890;DHT22;32625;51.080;16.970;2022-07-22T11:29:38;29.10;57.70
46890;DHT22;32625;51.080;16.970;2022-07-22T11:32:09;28.90;56.90
46890;DHT22;32625;51.080;16.970;2022-07-22T11:34:42;28.60;58.20
46890;DHT22;32625;51.080;16.970;2022-07-22T11:37:23;28.50;58.20
46890;DHT22;32625;51.080;16.970;2022-07-22T11:40:02;28.80;57.80
46890;DHT22;32625;51.080;16.970;2022-07-22T11:42:30;29.10;56.30
46890;DHT22;32625;51.080;16.970;2022-07-22T11:44:58;29.10;56.90
46890;DHT22;32625;51.080;16.970;2022-07-22T11:47:25;29.10;57.60
46890;DHT22;32625;51.080;16.970;2022-07-22T11:49:53;29.40;55.00
46890;DHT22;32625;51.080;16.970;2022-07-22T11:52:20;29.40;55.20
46890;DHT22;32625;51.080;16.970;2022-07-22T11:54:47;29.30;55.70
46890;DHT22;32625;51.080;16.970;2022-07-22T11:57:16;29.30;54.30
46890;DHT22;32625;51.080;16.970;2022-07-22T11:59:43;29.20;55.10
46890;DHT22;32625;51.080;16.970;2022-07-22T12:02:12;29.60;55.20
46890;DHT22;32625;51.080;16.970;2022-07-22T12:04:41;29.60;55.30
46890;DHT22;32625;51.080;16.970;2022-07-22T12:07:11;29.80;54.30
46890;DHT22;32625;51.080;16.970;2022-07-22T12:09:39;30.00;53.90
46890;DHT22;32625;51.080;16.970;2022-07-22T12:12:09;29.80;54.20
46890;DHT22;32625;51.080;16.970;2022-07-22T12:14:45;29.60;53.50
46890;DHT22;32625;51.080;16.970;2022-07-22T12:17:14;29.90;53.10
46890;DHT22;32625;51.080;16.970;2022-07-22T12:19:42;29.70;52.80
46890;DHT22;32625;51.080;16.970;2022-07-22T12:22:28;29.80;53.70
46890;DHT22;32625;51.080;16.970;2022-07-22T12:25:00;29.70;53.40
46890;DHT22;32625;51.080;16.970;2022-07-22T12:27:29;29.70;52.60
46890;DHT22;32625;51.080;16.970;2022-07-22T12:29:57;29.70;52.40
46890;DHT22;32625;51.080;16.970;2022-07-22T12:32:27;29.60;52.50
46890;DHT22;32625;51.080;16.970;2022-07-22T12:42:33;29.70;53.00
46890;DHT22;32625;51.080;16.970;2022-07-22T12:45:06;29.60;52.80
46890;DHT22;32625;51.080;16.970;2022-07-22T12:47:52;29.50;52.60
46890;DHT22;32625;51.080;16.970;2022-07-22T12:50:26;29.70;52.60
46890;DHT22;32625;51.080;16.970;2022-07-22T12:53:10;29.80;52.60
46890;DHT22;32625;51.080;16.970;2022-07-22T12:55:49;29.70;52.70
46890;DHT22;32625;51.080;16.970;2022-07-22T12:58:27;30.00;53.90
46890;DHT22;32625;51.080;16.970;2022-07-22T13:00:57;30.00;53.10
46890;DHT22;32625;51.080;16.970;2022-07-22T13:03:25;30.20;53.40
46890;DHT22;32625;51.080;16.970;2022-07-22T13:05:55;30.20;52.70
46890;DHT22;32625;51.080;16.970;2022-07-22T13:08:24;30.00;53.50
46890;DHT22;32625;51.080;16.970;2022-07-22T13:10:56;29.70;54.90
46890;DHT22;32625;51.080;16.970;2022-07-22T13:13:23;29.60;53.50
46890;DHT22;32625;51.080;16.970;2022-07-22T13:15:51;29.60;55.00
46890;DHT22;32625;51.080;16.970;2022-07-22T13:18:19;29.70;54.20
46890;DHT22;32625;51.080;16.970;2022-07-22T13:20:46;29.60;54.00
46890;DHT22;32625;51.080;16.970;2022-07-22T13:23:14;29.30;55.10
46890;DHT22;32625;51.080;16.970;2022-07-22T13:25:42;29.60;54.60
46890;DHT22;32625;51.080;16.970;2022-07-22T13:28:09;29.80;54.30
46890;DHT22;32625;51.080;16.970;2022-07-22T13:30:37;30.00;53.90
46890;DHT22;32625;51.080;16.970;2022-07-22T13:33:04;30.10;53.60
46890;DHT22;32625;51.080;16.970;2022-07-22T13:35:32;29.90;53.60
46890;DHT22;32625;51.080;16.970;2022-07-22T13:37:59;29.90;54.00
46890;DHT22;32625;51.080;16.970;2022-07-22T13:40:26;30.00;54.10
46890;DHT22;32625;51.080;16.970;2022-07-22T13:42:54;30.00;52.00
46890;DHT22;32625;51.080;16.970;2022-07-22T13:45:21;29.80;53.10
46890;DHT22;32625;51.080;16.970;2022-07-22T13:47:48;29.40;54.30
46890;DHT22;32625;51.080;16.970;2022-07-22T13:50:16;29.50;53.80
46890;DHT22;32625;51.080;16.970;2022-07-22T13:52:44;29.40;55.60
46890;DHT22;32625;51.080;16.970;2022-07-22T13:55:13;29.30;54.60
46890;DHT22;32625;51.080;16.970;2022-07-22T13:57:41;29.30;55.00
46890;DHT22;32625;51.080;16.970;2022-07-22T14:00:10;29.70;53.40
46890;DHT22;32625;51.080;16.970;2022-07-22T14:02:43;29.80;53.50
46890;DHT22;32625;51.080;16.970;2022-07-22T14:05:11;30.10;53.00
46890;DHT22;32625;51.080;16.970;2022-07-22T14:07:39;30.10;53.10
46890;DHT22;32625;51.080;16.970;2022-07-22T14:10:07;29.90;52.70
46890;DHT22;32625;51.080;16.970;2022-07-22T14:12:35;29.80;53.10
46890;DHT22;32625;51.080;16.970;2022-07-22T14:15:03;29.70;54.20
46890;DHT22;32625;51.080;16.970;2022-07-22T14:17:30;29.40;53.20
46890;DHT22;32625;51.080;16.970;2022-07-22T14:19:57;29.50;55.10
46890;DHT22;32625;51.080;16.970;2022-07-22T14:22:28;29.80;57.40
46890;DHT22;32625;51.080;16.970;2022-07-22T14:24:55;29.80;54.40
46890;DHT22;32625;51.080;16.970;2022-07-22T14:27:22;29.60;54.20
46890;DHT22;32625;51.080;16.970;2022-07-22T14:29:50;29.60;54.30
46890;DHT22;32625;51.080;16.970;2022-07-22T14:32:17;29.40;53.60
46890;DHT22;32625;51.080;16.970;2022-07-22T14:34:45;29.40;53.00
46890;DHT22;32625;51.080;16.970;2022-07-22T14:37:12;29.20;56.30
46890;DHT22;32625;51.080;16.970;2022-07-22T14:39:40;28.90;59.30
46890;DHT22;32625;51.080;16.970;2022-07-22T14:42:07;28.90;57.60
46890;DHT22;32625;51.080;16.970;2022-07-22T14:44:34;28.90;54.80
46890;DHT22;32625;51.080;16.970;2022-07-22T14:47:01;29.00;55.10
46890;DHT22;32625;51.080;16.970;2022-07-22T14:49:29;29.30;54.10
46890;DHT22;32625;51.080;16.970;2022-07-22T14:51:56;29.70;53.90
46890;DHT22;32625;51.080;16.970;2022-07-22T14:54:23;29.80;54.80
46890;DHT22;32625;51.080;16.970;2022-07-22T14:56:51;29.70;55.00
46890;DHT22;32625;51.080;16.970;2022-07-22T14:59:18;29.60;54.00
46890;DHT22;32625;51.080;16.970;2022-07-22T15:01:45;29.30;54.60
46890;DHT22;32625;51.080;16.970;2022-07-22T15:04:12;29.30;56.50
46890;DHT22;32625;51.080;16.970;2022-07-22T15:06:40;29.20;54.90
46890;DHT22;32625;51.080;16.970;2022-07-22T15:09:07;29.20;53.10
46890;DHT22;32625;51.080;16.970;2022-07-22T15:11:35;29.20;53.70
46890;DHT22;32625;51.080;16.970;2022-07-22T15:14:02;29.30;53.70
46890;DHT22;32625;51.080;16.970;2022-07-22T15:16:29;29.60;53.20
46890;DHT22;32625;51.080;16.970;2022-07-22T15:18:57;29.70;52.20
46890;DHT22;32625;51.080;16.970;2022-07-22T15:21:24;30.00;52.00
46890;DHT22;32625;51.080;16.970;2022-07-22T15:23:58;30.00;51.90
46890;DHT22;32625;51.080;16.970;2022-07-22T15:26:26;30.10;51.00
46890;DHT22;32625;51.080;16.970;2022-07-22T15:28:54;29.80;53.20
46890;DHT22;32625;51.080;16.970;2022-07-22T15:31:21;29.60;52.70
46890;DHT22;32625;51.080;16.970;2022-07-22T15:33:49;29.60;53.80
46890;DHT22;32625;51.080;16.970;2022-07-22T15:36:20;29.70;52.10
46890;DHT22;32625;51.080;16.970;2022-07-22T15:38:47;29.60;53.30
46890;DHT22;32625;51.080;16.970;2022-07-22T15:41:15;29.60;53.10
46890;DHT22;32625;51.080;16.970;2022-07-22T15:43:42;29.80;51.70
46890;DHT22;32625;51.080;16.970;2022-07-22T15:46:09;29.80;53.00
46890;DHT22;32625;51.080;16.970;2022-07-22T15:48:37;29.50;52.50
46890;DHT22;32625;51.080;16.970;2022-07-22T15:51:07;29.30;56.20
46890;DHT22;32625;51.080;16.970;2022-07-22T15:53:35;29.10;55.80
46890;DHT22;32625;51.080;16.970;2022-07-22T15:56:03;29.10;53.90
46890;DHT22;32625;51.080;16.970;2022-07-22T15:58:30;29.10;55.10